createdAt,value
2022-11-20T00:02:15.841Z,101238.41
2022-11-20T00:07:17.374Z,101240.56
2022-11-20T00:12:19.081Z,101220.16
2022-11-20T00:17:20.538Z,101224.81
2022-11-20T00:22:21.922Z,101223.44
2022-11-20T00:27:23.628Z,101216.13
2022-11-20T00:32:24.995Z,101222.06
2022-11-20T00:37:26.912Z,101221.88
2022-11-20T00:42:28.390Z,101212.94
2022-11-20T00:47:29.790Z,101218.09
2022-11-20T00:52:31.229Z,101225.91
2022-11-20T00:57:32.768Z,101222.13
2022-11-20T01:02:34.200Z,101229.75
2022-11-20T01:07:35.825Z,101215.66
2022-11-20T01:12:37.281Z,101208.59
2022-11-20T01:17:38.724Z,101205.22
2022-11-20T01:22:40.270Z,101199.03
2022-11-20T01:27:41.839Z,101191.88
2022-11-20T01:32:43.295Z,101195.63
2022-11-20T01:37:44.716Z,101171.22
2022-11-20T01:43:11.791Z,101176.59
2022-11-20T01:48:14.025Z,101190.06
2022-11-20T01:53:19.415Z,101192.94
2022-11-20T01:58:26.701Z,101195.69
2022-11-20T02:03:29.096Z,101197.97
2022-11-20T02:08:31.459Z,101189.91
2022-11-20T02:13:45.998Z,101195.81
2022-11-20T02:18:48.332Z,101182.22
2022-11-20T02:24:10.183Z,101188.97
2022-11-20T02:29:11.643Z,101180.53
2022-11-20T02:34:13.146Z,101187.47
2022-11-20T02:39:17.960Z,101173.28
2022-11-20T02:44:19.546Z,101170.69
2022-11-20T02:49:21.317Z,101169.81
2022-11-20T02:54:23.641Z,101159.00
2022-11-20T02:59:25.337Z,101160.00
2022-11-20T03:04:26.765Z,101155.91
2022-11-20T03:09:28.200Z,101150.69
2022-11-20T03:14:29.653Z,101152.03
2022-11-20T03:19:31.235Z,101147.78
2022-11-20T03:24:32.621Z,101145.84
2022-11-20T03:29:34.013Z,101148.44
2022-11-20T03:34:35.417Z,101147.13
2022-11-20T03:39:36.802Z,101147.53
2022-11-20T03:44:38.228Z,101135.41
2022-11-20T03:49:39.626Z,101138.25
2022-11-20T03:54:41.116Z,101133.72
2022-11-20T03:59:42.663Z,101140.34
2022-11-20T04:04:44.031Z,101119.63
2022-11-20T04:09:45.604Z,101123.03
2022-11-20T04:14:47.017Z,101116.84
2022-11-20T04:19:48.436Z,101119.97
2022-11-20T04:24:49.859Z,101117.19
2022-11-20T04:29:51.278Z,101120.56
2022-11-20T04:34:52.730Z,101119.16
2022-11-20T04:39:54.168Z,101120.56
2022-11-20T04:44:55.994Z,101115.13
2022-11-20T04:49:57.411Z,101112.94
2022-11-20T04:54:58.973Z,101104.53
2022-11-20T05:00:00.413Z,101095.25
2022-11-20T05:05:02.217Z,101094.81
2022-11-20T05:10:03.974Z,101088.50
2022-11-20T05:15:05.781Z,101079.31
2022-11-20T05:20:08.058Z,101078.78
2022-11-20T05:25:09.829Z,101086.28
2022-11-20T05:30:11.936Z,101081.38
2022-11-20T05:35:13.308Z,101074.22
2022-11-20T05:40:14.714Z,101082.47
2022-11-20T05:45:16.142Z,101069.44
2022-11-20T05:50:17.573Z,101061.94
2022-11-20T05:55:19.155Z,101066.25
2022-11-20T06:00:20.597Z,101065.78
2022-11-20T06:05:22.053Z,101085.91
2022-11-20T06:10:23.428Z,101100.94
2022-11-20T06:15:24.866Z,101095.78
2022-11-20T06:20:26.265Z,101103.72
2022-11-20T06:25:27.625Z,101107.47
2022-11-20T06:30:29.024Z,101108.75
2022-11-20T06:35:30.381Z,101108.53
2022-11-20T06:40:31.795Z,101118.59
2022-11-20T06:45:33.152Z,101119.28
2022-11-20T06:50:34.582Z,101120.75
2022-11-20T06:55:35.956Z,101112.28
2022-11-20T07:00:37.562Z,101114.19
2022-11-20T07:05:39.798Z,101110.03
2022-11-20T07:10:41.149Z,101112.88
2022-11-20T07:15:42.686Z,101113.31
2022-11-20T07:20:44.120Z,101097.34
2022-11-20T07:25:45.486Z,101095.84
2022-11-20T07:30:54.284Z,101096.34
2022-11-20T07:35:55.743Z,101082.41
2022-11-20T07:40:58.632Z,101073.81
2022-11-20T07:46:00.453Z,101081.53
2022-11-20T07:51:02.030Z,101076.22
2022-11-20T07:56:04.064Z,101072.13
2022-11-20T08:01:07.264Z,101074.28
2022-11-20T08:06:08.976Z,101074.28
2022-11-20T08:11:29.322Z,101082.38
2022-11-20T08:16:30.751Z,101071.94
2022-11-20T08:21:37.799Z,101077.50
2022-11-20T08:26:40.487Z,101073.19
2022-11-20T08:31:41.989Z,101060.69
2022-11-20T08:36:43.422Z,101061.50
2022-11-20T08:41:44.802Z,101063.31
2022-11-20T08:46:47.330Z,101055.03
2022-11-20T08:51:52.599Z,101052.78
2022-11-20T08:56:54.186Z,101046.50
2022-11-20T09:01:55.687Z,101035.78
2022-11-20T09:06:57.269Z,101031.84
2022-11-20T09:11:58.663Z,101016.00
2022-11-20T09:17:00.518Z,101010.41
2022-11-20T09:22:01.991Z,101000.94
2022-11-20T09:27:05.285Z,100997.09
2022-11-20T09:32:07.010Z,100989.13
2022-11-20T09:37:08.400Z,100976.53
2022-11-20T09:42:32.937Z,100984.78
2022-11-20T09:47:50.737Z,100980.44
2022-11-20T09:53:00.750Z,100971.06
2022-11-20T09:58:03.182Z,100979.25
2022-11-20T10:03:35.825Z,100980.25
2022-11-20T10:08:45.715Z,100970.94
2022-11-20T10:14:08.580Z,100956.81
2022-11-20T10:19:46.850Z,100945.44
2022-11-20T10:25:02.841Z,100931.50
2022-11-20T10:30:14.338Z,100922.47
2022-11-20T10:35:42.164Z,100915.75
2022-11-20T10:40:52.087Z,100912.28
2022-11-20T10:46:04.138Z,100904.75
2022-11-20T10:51:14.973Z,100896.34
2022-11-20T10:56:31.548Z,100882.25
2022-11-20T11:01:42.637Z,100881.38
2022-11-20T11:06:49.983Z,100869.09
2022-11-20T11:11:51.426Z,100856.91
2022-11-20T11:16:56.064Z,100847.38
2022-11-20T11:21:58.215Z,100836.81
2022-11-20T11:27:06.487Z,100831.47
2022-11-20T11:32:15.307Z,100811.88
2022-11-20T11:37:22.342Z,100801.38
2022-11-20T11:42:23.680Z,100795.94
2022-11-20T11:47:27.586Z,100790.06
2022-11-20T11:52:32.157Z,100785.19
2022-11-20T11:57:48.410Z,100781.00
2022-11-20T12:03:05.902Z,100783.00
2022-11-20T12:08:24.477Z,100765.03
2022-11-20T12:13:47.633Z,100756.22
2022-11-20T12:18:52.188Z,100736.78
2022-11-20T12:24:16.393Z,100731.28
2022-11-20T12:29:44.082Z,100734.78
2022-11-20T12:35:01.249Z,100715.19
2022-11-20T12:40:35.682Z,100710.41
2022-11-20T12:45:47.819Z,100702.56
2022-11-20T12:51:22.691Z,100703.13
2022-11-20T12:56:40.743Z,100708.66
2022-11-20T13:01:50.596Z,100690.97
2022-11-20T13:06:52.293Z,100664.63
2022-11-20T13:12:16.524Z,100645.06
2022-11-20T13:17:48.040Z,100635.03
2022-11-20T13:22:58.223Z,100618.66
2022-11-20T13:28:02.861Z,100604.63
2022-11-20T13:33:09.783Z,100603.34
2022-11-20T13:38:15.844Z,100592.59
2022-11-20T13:43:38.239Z,100581.72
2022-11-20T13:48:45.262Z,100582.63
2022-11-20T13:54:19.845Z,100561.34
2022-11-20T13:59:44.798Z,100525.94
2022-11-20T14:04:49.205Z,100514.88
2022-11-20T14:09:53.883Z,100511.75
2022-11-20T14:14:58.699Z,100504.09
2022-11-20T14:20:04.022Z,100492.63
2022-11-20T14:25:13.876Z,100502.94
2022-11-20T14:30:18.353Z,100512.31
2022-11-20T14:35:29.836Z,100474.91
2022-11-20T14:40:36.028Z,100468.03
2022-11-20T14:45:39.202Z,100461.25
2022-11-20T14:50:40.870Z,100448.50
2022-11-20T14:55:42.241Z,100429.00
2022-11-20T15:01:01.659Z,100416.41
2022-11-20T15:06:04.102Z,100407.97
2022-11-20T15:11:18.934Z,100396.16
2022-11-20T15:16:23.074Z,100387.72
2022-11-20T15:21:24.859Z,100377.69
2022-11-20T15:26:28.919Z,100374.38
2022-11-20T15:31:30.275Z,100368.63
2022-11-20T15:36:31.670Z,100372.78
2022-11-20T15:41:33.092Z,100364.50
2022-11-20T15:46:40.855Z,100351.78
2022-11-20T15:51:45.223Z,100344.34
2022-11-20T15:56:48.098Z,100331.59
2022-11-20T16:01:50.391Z,100313.97
2022-11-20T16:06:51.815Z,100287.59
2022-11-20T16:11:53.149Z,100268.47
2022-11-20T16:16:54.806Z,100252.44
2022-11-20T16:22:02.663Z,100228.94
2022-11-20T16:27:04.735Z,100218.28
2022-11-20T16:32:06.293Z,100217.56
2022-11-20T16:37:10.593Z,100203.00
2022-11-20T16:42:12.145Z,100186.72
2022-11-20T16:47:13.599Z,100188.50
2022-11-20T16:52:14.938Z,100176.63
2022-11-20T16:57:16.357Z,100165.56
2022-11-20T17:02:17.962Z,100151.03
2022-11-20T17:07:19.979Z,100133.97
2022-11-20T17:12:21.414Z,100126.41
2022-11-20T17:17:22.780Z,100106.06
2022-11-20T17:22:27.757Z,100096.75
2022-11-20T17:27:29.177Z,100097.59
2022-11-20T17:32:30.607Z,100095.09
2022-11-20T17:37:32.021Z,100092.56
2022-11-20T17:42:36.766Z,100085.72
2022-11-20T17:47:39.454Z,100076.47
2022-11-20T17:52:41.160Z,100081.66
2022-11-20T17:57:56.806Z,100068.22
2022-11-20T18:02:59.123Z,100053.84
2022-11-20T18:08:00.602Z,100060.75
2022-11-20T18:13:02.070Z,100066.72
2022-11-20T18:18:03.620Z,100058.31
2022-11-20T18:23:05.078Z,100058.31
2022-11-20T18:28:06.527Z,100056.56
2022-11-20T18:33:08.017Z,100058.22
2022-11-20T18:38:09.460Z,100067.19
2022-11-20T18:43:29.940Z,100071.25
2022-11-20T18:48:32.312Z,100069.28
2022-11-20T18:53:37.026Z,100064.81
2022-11-20T18:58:41.133Z,100070.59
2022-11-20T19:03:43.712Z,100071.28
2022-11-20T19:08:45.101Z,100073.84
2022-11-20T19:13:46.828Z,100082.31
2022-11-20T19:18:49.354Z,100088.16
2022-11-20T19:23:52.672Z,100093.13
2022-11-20T19:28:54.401Z,100088.97
2022-11-20T19:34:01.428Z,100093.06
2022-11-20T19:39:05.836Z,100088.66
2022-11-20T19:44:14.012Z,100079.41
2022-11-20T19:49:15.627Z,100060.44
2022-11-20T19:54:17.631Z,100064.69
2022-11-20T19:59:19.099Z,100069.72
2022-11-20T20:04:20.500Z,100078.22
2022-11-20T20:09:23.698Z,100083.16
2022-11-20T20:14:25.374Z,100096.84
2022-11-20T20:19:27.081Z,100100.19
2022-11-20T20:24:28.579Z,100090.97
2022-11-20T20:29:30.049Z,100104.47
2022-11-20T20:34:32.082Z,100117.22
2022-11-20T20:39:33.613Z,100117.06
2022-11-20T20:44:59.912Z,100126.34
2022-11-20T20:50:02.553Z,100126.28
2022-11-20T20:55:04.547Z,100127.22
2022-11-20T21:00:10.221Z,100128.84
2022-11-20T21:05:11.749Z,100131.31
2022-11-20T21:10:13.143Z,100132.13
2022-11-20T21:15:14.593Z,100138.06
2022-11-20T21:20:35.023Z,100141.56
2022-11-20T21:25:38.188Z,100144.19
2022-11-20T21:30:39.579Z,100150.09
2022-11-20T21:35:41.475Z,100151.25
2022-11-20T21:40:42.868Z,100148.47
2022-11-20T21:45:44.299Z,100149.53
2022-11-20T21:50:45.716Z,100150.63
2022-11-20T21:55:54.821Z,100152.88
2022-11-20T22:00:56.848Z,100160.56
2022-11-20T22:05:59.116Z,100159.56
2022-11-20T22:11:05.296Z,100153.75
2022-11-20T22:16:06.703Z,100159.03
2022-11-20T22:21:08.345Z,100176.91
2022-11-20T22:26:12.463Z,100175.88
2022-11-20T22:31:16.700Z,100185.38
2022-11-20T22:36:20.778Z,100181.00
2022-11-20T22:41:28.977Z,100194.56
2022-11-20T22:46:33.662Z,100202.81
2022-11-20T22:51:38.347Z,100213.00
2022-11-20T22:56:41.019Z,100228.91
2022-11-20T23:01:42.455Z,100221.41
2022-11-20T23:06:43.980Z,100221.53
2022-11-20T23:11:45.468Z,100229.78
2022-11-20T23:16:46.886Z,100228.97
2022-11-20T23:21:48.344Z,100231.06
2022-11-20T23:26:50.140Z,100235.47
2022-11-20T23:31:51.614Z,100232.81
2022-11-20T23:36:52.967Z,100245.69
2022-11-20T23:41:54.361Z,100247.34
2022-11-20T23:46:55.777Z,100245.63
2022-11-20T23:51:57.238Z,100243.94
2022-11-20T23:56:58.591Z,100248.22
